Terminal Aerodrome Forecast
Issued by NWS

Current Version | Previous Version | Text Only | Print | Product List | Glossary Off
Versions: 1 2 3 4 5 6 7 8 9 10 11 12 13 14 15 16 17 18 19 20 21

000
FTUS41 KRLX 162347
TAFCKB
TAF
KCKB 162347Z 1700/1724 33008G15KT P6SM BKN015
      TEMPO 1700/1703 SCT025
     FM170300 34004KT P6SM SCT025
     FM170900 00000KT 4SM BR FEW025
     FM171300 00000KT P6SM SCT025
     FM171500 00000KT P6SM BKN150
     FM171900 00000KT P6SM -RA OVC150
     FM172000 00000KT 3SM -RA BR OVC025
     FM172200 00000KT 2SM -RA OVC008=

USA.gov is the U.S. government's official web portal to all federal, state and local government web resources and services.